ADDS METAR Data INFO
IDs: Format: Raw Decoded Include TAF

Data at: 1329 UTC 19 Jul 2018

KAVQ 191315Z AUTO 16003KT 10SM CLR 25/19 A3003 RMK AO2 T02530190
KAVQ 191255Z AUTO 17003KT 10SM CLR 25/19 A3003 RMK AO2 T02540187
KAVQ 191235Z AUTO 00000KT 10SM CLR 26/19 A3002 RMK AO2 T02550186
KAVQ 191215Z AUTO 21003KT 10SM CLR 25/19 A3002 RMK AO2 T02530190
KAVQ 191155Z AUTO 00000KT 10SM CLR 25/19 A3001 RMK AO2 T02520193
KAVQ 191135Z AUTO 00000KT 10SM CLR 26/19 A3000 RMK AO2 T02550189
KAVQ 191115Z AUTO 00000KT 10SM CLR 26/19 A3000 RMK AO2 T02570187
KAVQ 191055Z AUTO 19004KT 10SM CLR 26/19 A3000 RMK AO2 T02590185
KAVQ 191035Z AUTO 19005KT 10SM CLR 26/19 A3000 RMK AO2 T02590185
KAVQ 191015Z AUTO 19005KT 10SM CLR 26/19 A3000 RMK AO2 T02610185
KAVQ 190955Z AUTO 19005KT 10SM CLR 26/19 A3000 RMK AO2 T02610186
KAVQ 190935Z AUTO 20005KT 10SM CLR 26/19 A3000 RMK AO2 T02620186
KAVQ 190915Z AUTO 21005KT 10SM CLR 26/19 A3000 RMK AO2 T02630187
KAVQ 190855Z AUTO 21006KT 10SM CLR 27/19 A3001 RMK AO2 T02650186
KAVQ 190835Z AUTO 21006KT 10SM CLR 27/18 A3000 RMK AO2 T02690183
KAVQ 190815Z AUTO 20005KT 10SM CLR 27/18 A3001 RMK AO2 T02730180
KAVQ 190755Z AUTO 19005KT 10SM CLR 28/18 A3001 RMK AO2 T02750179
KAVQ 190735Z AUTO 16006KT 10SM CLR 28/18 A3000 RMK AO2 T02770176
KAVQ 190715Z AUTO 18004KT 10SM CLR 28/18 A3001 RMK AO2 T02780175
KAVQ 190655Z AUTO 18004KT 10SM CLR 28/18 A3001 RMK AO2 T02800176
KAVQ 190635Z AUTO 17005KT 10SM CLR 28/18 A3001 RMK AO2 T02800179
KAVQ 190615Z AUTO 18007KT 10SM CLR 28/18 A3001 RMK AO2 T02820179
KAVQ 190555Z AUTO 19006KT 10SM CLR 28/18 A3001 RMK AO2 T02820180
KAVQ 190535Z AUTO 18006KT 10SM SCT070 28/18 A3001 RMK AO2 T02840180
KAVQ 190515Z AUTO 19007KT 10SM CLR 29/18 A3001 RMK AO2 T02880178
KAVQ 190455Z AUTO 00000KT 10SM SCT070 29/17 A3001 RMK AO2 T02940173
KAVQ 190435Z AUTO 21004KT 10SM OVC070 31/16 A3000 RMK AO2 T03070162
KAVQ 190415Z AUTO 29006KT 10SM BKN070 31/16 A2999 RMK AO2 T03050163
KAVQ 190355Z AUTO 29006KT 10SM SCT070 31/16 A2999 RMK AO2 T03070163
KAVQ 190335Z AUTO 30009KT 10SM BKN070 32/16 A2998 RMK AO2 T03170155
KAVQ 190315Z AUTO 29006KT 10SM BKN070 32/15 A2998 RMK AO2 T03190149
KAVQ 190255Z AUTO 26006KT 10SM BKN075 BKN080 32/15 A2997 RMK AO2 T03170150
KAVQ 190235Z AUTO 29003KT 10SM BKN075 32/15 A2996 RMK AO2 T03200147
KAVQ 190215Z AUTO 34004KT 10SM CLR 32/15 A2996 RMK AO2 T03200147
KAVQ 190155Z AUTO 33005KT 10SM CLR 32/15 A2996 RMK AO2 T03230146
KAVQ 190135Z AUTO 32004KT 10SM CLR 33/15 A2996 RMK AO2 T03260148
KAVQ 190115Z AUTO 33007KT 10SM CLR 33/15 A2995 RMK AO2 T03280146
KAVQ 190055Z AUTO 33009KT 10SM CLR 33/14 A2994 RMK AO2 T03300144
KAVQ 190035Z AUTO 32008KT 10SM CLR 33/15 A2994 RMK AO2 T03320145
KAVQ 190015Z AUTO 34009KT 10SM CLR 34/15 A2995 RMK AO2 T03390145
KAVQ 182355Z AUTO 32010KT 10SM CLR 34/15 A2995 RMK AO2 T03390147
KAVQ 182335Z AUTO 32009G15KT 10SM CLR 34/15 A2996 RMK AO2 T03390150
KAVQ 182315Z AUTO 33010G17KT 10SM CLR 34/15 A2996 RMK AO2 T03380151
KAVQ 182255Z AUTO 33011G15KT 10SM CLR 34/15 A2996 RMK AO2 T03370152
KAVQ 182235Z AUTO 33009KT 10SM CLR 34/16 A2997 RMK AO2 T03370155
KAVQ 182215Z AUTO 31010KT 10SM CLR 33/16 A2998 RMK AO2 T03280155
KAVQ 182155Z AUTO 32006KT 10SM CLR 33/15 A2999 RMK AO2 T03300152
KAVQ 182135Z AUTO 32008G14KT 280V340 10SM CLR 34/15 A2999 RMK AO2 T03380151
KAVQ 182115Z AUTO 30007KT 10SM CLR 33/15 A3000 RMK AO2 T03330153
KAVQ 182055Z AUTO 28007KT 10SM CLR 33/15 A3001 RMK AO2 T03300152
KAVQ 182035Z AUTO 32003KT 10SM CLR 33/15 A3002 RMK AO2 T03260153
KAVQ 182015Z AUTO 27006KT 10SM CLR 32/15 A3002 RMK AO2 T03230154
KAVQ 181955Z AUTO 34003KT 10SM CLR 32/16 A3004 RMK AO2 T03210155
KAVQ 181935Z AUTO 32006KT 10SM CLR 32/16 A3005 RMK AO2 T03180157
KAVQ 181915Z AUTO 00000KT 10SM CLR 31/16 A3006 RMK AO2 T03090160
KAVQ 181855Z AUTO 30003KT 10SM CLR 31/17 A3007 RMK AO2 T03080165
KAVQ 181835Z AUTO 00000KT 10SM CLR 31/17 A3007 RMK AO2 T03050166
KAVQ 181815Z AUTO 26003KT 10SM CLR 30/17 A3007 RMK AO2 T02970167
KAVQ 181755Z AUTO 00000KT 10SM CLR 29/17 A3008 RMK AO2 T02940169
KAVQ 181735Z AUTO 20004KT 10SM CLR 29/17 A3009 RMK AO2 T02910172
KAVQ 181715Z AUTO 00000KT 10SM CLR 28/17 A3009 RMK AO2 T02840172
KAVQ 181655Z AUTO 00000KT 10SM CLR 28/18 A3009 RMK AO2 T02790176
KAVQ 181635Z AUTO 29004KT 10SM CLR 28/18 A3009 RMK AO2 T02760177
KAVQ 181615Z AUTO 01004KT 10SM CLR 27/18 A3009 RMK AO2 T02740179
KAVQ 181555Z AUTO 34003KT 10SM CLR 27/18 A3010 RMK AO2 T02690179
KAVQ 181535Z AUTO 34003KT 10SM CLR 27/18 A3010 RMK AO2 T02670179
KAVQ 181515Z AUTO 36004KT 10SM CLR 26/18 A3010 RMK AO2 T02630179
KAVQ 181455Z AUTO 00000KT 10SM CLR 26/18 A3010 RMK AO2 T02590181
KAVQ 181435Z AUTO 00000KT 10SM CLR 26/18 A3010 RMK AO2 T02550182
KAVQ 181415Z AUTO 00000KT 10SM CLR 25/18 A3009 RMK AO2 T02520181
KAVQ 181355Z AUTO 36004KT 10SM CLR 25/18 A3009 RMK AO2 T02490184
KAVQ 181335Z AUTO 32003KT 10SM CLR 25/19 A3009 RMK AO2 T02490186
KAVQ 181315Z AUTO 28004KT 10SM CLR 25/18 A3009 RMK AO2 T02470182
KAVQ 181255Z AUTO 25005KT 10SM CLR 25/19 A3008 RMK AO2 T02450189
KAVQ 181235Z AUTO 24006KT 10SM CLR 25/19 A3007 RMK AO2 T02450190
KAVQ 181215Z AUTO 23006KT 10SM CLR 25/19 A3006 RMK AO2 T02470190
KAVQ 181155Z AUTO 21004KT 10SM CLR 25/19 A3006 RMK AO2 T02500189
KAVQ 181135Z AUTO 23004KT 10SM CLR 26/18 A3006 RMK AO2 T02560184
KAVQ 181115Z AUTO 23003KT 10SM CLR 26/18 A3005 RMK AO2 T02580183
KAVQ 181055Z AUTO 00000KT 10SM CLR 26/18 A3005 RMK AO2 T02580184
KAVQ 181035Z AUTO 00000KT 10SM BKN110 26/18 A3005 RMK AO2 T02570184
KAVQ 181015Z AUTO 00000KT 10SM BKN110 26/19 A3005 RMK AO2 T02560186
KAVQ 180955Z AUTO 00000KT 10SM SCT120 26/19 A3005 RMK AO2 T02560186
KAVQ 180935Z AUTO 22004KT 10SM SCT110 26/19 A3005 RMK AO2 T02570185
KAVQ 180915Z AUTO 20005KT 10SM BKN110 26/19 A3005 RMK AO2 T02570185
KAVQ 180855Z AUTO 17006KT 10SM CLR 25/19 A3004 RMK AO2 T02530187
KAVQ 180835Z AUTO 17004KT 10SM CLR 25/19 A3004 RMK AO2 T02530190
KAVQ 180815Z AUTO 18006KT 10SM CLR 26/19 A3004 RMK AO2 T02550187
KAVQ 180755Z AUTO 19009KT 10SM CLR 26/19 A3003 RMK AO2 T02560186
KAVQ 180735Z AUTO 19009KT 10SM CLR 26/19 A3003 RMK AO2 T02550186
KAVQ 180715Z AUTO 18008KT 10SM CLR 26/19 A3004 RMK AO2 T02550185
KAVQ 180655Z AUTO 17011KT 10SM CLR 25/18 A3004 RMK AO2 T02540183
KAVQ 180635Z AUTO 17012KT 10SM SCT120 25/18 A3004 RMK AO2 T02540177
KAVQ 180615Z AUTO 19011KT 10SM BKN120 25/17 A3004 RMK AO2 T02510173
KAVQ 180555Z AUTO 22011KT 10SM SCT120 25/17 A3003 RMK AO2 T02510174
KAVQ 180535Z AUTO 18011KT 10SM CLR 25/17 A3003 RMK AO2 T02490174
KAVQ 180515Z AUTO 17014KT 10SM CLR 25/17 A3002 RMK AO2 T02510170
KAVQ 180455Z AUTO 19012G16KT 10SM CLR 25/17 A3002 RMK AO2 T02540168
KAVQ 180435Z AUTO 18018G26KT 10SM CLR 27/17 A3001 RMK AO2 T02670167
KAVQ 180415Z AUTO 21021G25KT 10SM SCT120 28/16 A2998 RMK AO2 T02780158
KAVQ 180355Z AUTO 22020G26KT 10SM BKN120 29/15 A2998 RMK AO2 T02910149
KAVQ 180335Z AUTO 23015KT 10SM SCT120 31/14 A2994 RMK AO2 T03050143
KAVQ 180315Z AUTO 24007G17KT 10SM BKN120 32/14 A2993 RMK AO2 T03150142
KAVQ 180255Z AUTO 30005KT 10SM CLR 32/15 A2991 RMK AO2 T03190148
KAVQ 180235Z AUTO 32004KT 10SM CLR 33/15 A2989 RMK AO2 T03250147
KAVQ 180215Z AUTO 31005KT 10SM CLR 34/14 A2989 RMK AO2 T03350141
KAVQ 180155Z AUTO 30008KT 10SM SCT110 34/14 A2988 RMK AO2 T03430137
KAVQ 180135Z AUTO 31008KT 10SM SCT110 35/14 A2987 RMK AO2 T03500138